createdAt,value
2022-11-05T00:01:09.109Z,62.08
2022-11-05T00:06:15.280Z,62.41
2022-11-05T00:11:18.964Z,62.42
2022-11-05T00:16:22.515Z,63.45
2022-11-05T00:21:27.722Z,63.73
2022-11-05T00:26:32.718Z,64.20
2022-11-05T00:31:36.305Z,64.03
2022-11-05T00:36:41.503Z,64.74
2022-11-05T00:41:45.273Z,64.68
2022-11-05T00:46:48.794Z,65.17
2022-11-05T00:51:53.961Z,65.90
2022-11-05T00:57:01.954Z,66.15
2022-11-05T01:02:07.980Z,65.61
2022-11-05T01:07:13.196Z,66.84
2022-11-05T01:12:16.745Z,67.18
2022-11-05T01:17:20.291Z,67.67
2022-11-05T01:22:25.581Z,67.71
2022-11-05T01:27:29.084Z,67.29
2022-11-05T01:32:32.646Z,67.88
2022-11-05T01:37:37.870Z,67.90
2022-11-05T01:42:41.533Z,68.23
2022-11-05T01:47:56.270Z,70.17
2022-11-05T01:53:09.303Z,70.57
2022-11-05T01:58:17.180Z,71.15
2022-11-05T02:03:20.876Z,70.81
2022-11-05T02:08:37.700Z,71.84
2022-11-05T02:13:41.755Z,72.16
2022-11-05T02:18:54.765Z,73.29
2022-11-05T02:24:31.998Z,73.57
2022-11-05T02:30:09.038Z,75.19
2022-11-05T02:35:27.712Z,74.53
2022-11-05T02:40:36.981Z,74.72
2022-11-05T02:45:49.447Z,75.01
2022-11-05T02:51:01.364Z,75.11
2022-11-05T02:56:10.108Z,75.00
2022-11-05T03:01:14.178Z,74.50
2022-11-05T03:06:45.260Z,75.61
2022-11-05T03:12:00.273Z,75.61
2022-11-05T03:17:13.414Z,75.79
2022-11-05T03:22:24.290Z,75.07
2022-11-05T03:27:32.134Z,75.75
2022-11-05T03:32:39.336Z,75.42
2022-11-05T03:37:48.051Z,75.58
2022-11-05T03:42:56.281Z,76.11
2022-11-05T03:48:02.541Z,75.81
2022-11-05T03:53:15.138Z,75.67
2022-11-05T03:58:22.861Z,75.65
2022-11-05T04:03:26.422Z,76.47
2022-11-05T04:08:31.594Z,76.81
2022-11-05T04:13:35.365Z,76.58
2022-11-05T04:18:38.961Z,76.29
2022-11-05T04:23:44.174Z,77.01
2022-11-05T04:28:47.740Z,76.75
2022-11-05T04:33:51.309Z,76.55
2022-11-05T04:38:56.497Z,76.59
2022-11-05T04:44:00.112Z,76.86
2022-11-05T04:49:03.661Z,77.01
2022-11-05T04:54:08.869Z,77.77
2022-11-05T04:59:12.421Z,77.43
2022-11-05T05:04:15.959Z,77.30
2022-11-05T05:09:21.130Z,78.31
2022-11-05T05:14:24.673Z,78.15
2022-11-05T05:19:28.539Z,78.46
2022-11-05T05:24:33.751Z,79.44
2022-11-05T05:29:37.337Z,79.25
2022-11-05T05:34:40.896Z,78.78
2022-11-05T05:39:46.223Z,78.69
2022-11-05T05:44:49.846Z,78.93
2022-11-05T05:49:53.386Z,79.14
2022-11-05T05:54:58.538Z,79.35
2022-11-05T06:00:02.104Z,79.27
2022-11-05T06:05:06.231Z,80.17
2022-11-05T06:10:11.817Z,79.65
2022-11-05T06:15:15.504Z,79.89
2022-11-05T06:20:19.316Z,80.12
2022-11-05T06:25:24.887Z,81.30
2022-11-05T06:30:28.563Z,81.25
2022-11-05T06:35:32.864Z,80.23
2022-11-05T06:40:38.044Z,79.42
2022-11-05T06:45:41.603Z,80.14
2022-11-05T06:50:46.417Z,79.96
2022-11-05T06:55:51.604Z,80.26
2022-11-05T07:00:55.195Z,80.40
2022-11-05T07:06:00.473Z,80.71
2022-11-05T07:11:06.277Z,81.16
2022-11-05T07:16:09.992Z,80.68
2022-11-05T07:21:13.535Z,80.89
2022-11-05T07:26:18.726Z,81.18
2022-11-05T07:31:22.337Z,81.55
2022-11-05T07:36:25.995Z,82.27
2022-11-05T07:41:31.221Z,81.93
2022-11-05T07:46:34.754Z,81.95
2022-11-05T07:51:38.302Z,81.58
2022-11-05T07:56:43.456Z,82.01
2022-11-05T08:01:47.200Z,81.97
2022-11-05T08:06:50.828Z,82.17
2022-11-05T08:11:59.907Z,83.23
2022-11-05T08:17:06.318Z,82.99
2022-11-05T08:22:09.907Z,82.26
2022-11-05T08:27:15.134Z,82.84
2022-11-05T08:32:18.694Z,82.53
2022-11-05T08:37:22.941Z,82.16
2022-11-05T08:42:28.160Z,82.51
2022-11-05T08:47:31.680Z,82.59
2022-11-05T08:52:35.252Z,82.97
2022-11-05T08:57:40.412Z,84.33
2022-11-05T09:02:44.115Z,85.14
2022-11-05T09:07:47.738Z,84.16
2022-11-05T09:12:52.891Z,84.64
2022-11-05T09:17:56.926Z,84.30
2022-11-05T09:23:00.646Z,84.73
2022-11-05T09:28:16.730Z,84.96
2022-11-05T09:33:22.517Z,84.78
2022-11-05T09:38:26.065Z,84.60
2022-11-05T09:43:35.573Z,85.30
2022-11-05T09:48:42.109Z,85.68
2022-11-05T09:53:47.125Z,85.43
2022-11-05T09:58:57.980Z,85.91
2022-11-05T10:04:08.145Z,86.09
2022-11-05T10:09:20.031Z,86.31
2022-11-05T10:14:29.311Z,86.02
2022-11-05T10:19:42.214Z,87.25
2022-11-05T10:24:47.549Z,86.34
2022-11-05T10:29:52.881Z,86.58
2022-11-05T10:34:59.657Z,87.06
2022-11-05T10:40:03.314Z,87.45
2022-11-05T10:45:17.649Z,88.64
2022-11-05T10:50:24.310Z,87.33
2022-11-05T10:55:30.042Z,87.94
2022-11-05T11:00:35.409Z,87.80
2022-11-05T11:05:40.837Z,87.64
2022-11-05T11:10:51.390Z,89.17
2022-11-05T11:16:13.703Z,88.43
2022-11-05T11:21:19.587Z,88.52
2022-11-05T11:26:24.583Z,88.98
2022-11-05T11:31:32.132Z,89.21
2022-11-05T11:36:39.989Z,89.27
2022-11-05T11:41:47.014Z,89.54
2022-11-05T11:46:54.313Z,90.42
2022-11-05T11:52:12.621Z,89.37
2022-11-05T11:57:24.223Z,90.30
2022-11-05T12:03:17.684Z,90.02
2022-11-05T12:08:47.050Z,89.43
2022-11-05T12:14:13.819Z,90.02
2022-11-05T12:19:32.226Z,89.82
2022-11-05T12:24:52.732Z,90.75
2022-11-05T12:30:03.801Z,89.13
2022-11-05T12:35:21.377Z,90.37
2022-11-05T12:40:55.317Z,91.01
2022-11-05T12:46:07.249Z,90.07
2022-11-05T12:51:22.575Z,89.79
2022-11-05T12:56:32.603Z,89.85
2022-11-05T13:01:40.487Z,90.43
2022-11-05T13:06:51.622Z,91.18
2022-11-05T13:11:58.538Z,91.03
2022-11-05T13:17:06.189Z,90.84
2022-11-05T13:22:20.913Z,91.04
2022-11-05T13:27:42.665Z,91.17
2022-11-05T13:32:50.858Z,90.98
2022-11-05T13:38:00.185Z,91.26
2022-11-05T13:43:44.531Z,91.45
2022-11-05T13:49:09.657Z,90.69
2022-11-05T13:54:47.921Z,90.33
2022-11-05T14:00:06.389Z,90.41
2022-11-05T14:05:24.519Z,90.76
2022-11-05T14:10:36.308Z,90.04
2022-11-05T14:15:52.788Z,91.07
2022-11-05T14:21:01.314Z,90.75
2022-11-05T14:26:17.209Z,90.77
2022-11-05T14:31:54.529Z,90.85
2022-11-05T14:37:24.019Z,92.27
2022-11-05T14:42:29.609Z,91.77
2022-11-05T14:47:38.009Z,91.91
2022-11-05T14:52:51.149Z,91.41
2022-11-05T14:58:23.932Z,93.25
2022-11-05T15:03:54.693Z,92.55
2022-11-05T15:09:24.557Z,93.51
2022-11-05T15:14:32.570Z,92.62
2022-11-05T15:19:39.289Z,93.88
2022-11-05T15:24:43.941Z,98.36
2022-11-05T15:29:47.541Z,98.61
2022-11-05T15:34:56.823Z,97.80
2022-11-05T15:40:00.396Z,96.92
2022-11-05T15:45:04.000Z,96.77
2022-11-05T15:50:16.678Z,96.56
2022-11-05T15:55:21.676Z,95.84
2022-11-05T16:00:27.155Z,96.40
2022-11-05T16:05:35.301Z,96.18
2022-11-05T16:10:40.198Z,96.10
2022-11-05T16:15:54.813Z,95.65
2022-11-05T16:21:04.873Z,94.92
2022-11-05T16:26:48.030Z,94.09
2022-11-05T16:31:52.188Z,93.10
2022-11-05T16:36:59.979Z,91.10
2022-11-05T16:42:20.598Z,90.16
2022-11-05T16:47:24.911Z,89.23
2022-11-05T16:52:30.530Z,87.85
2022-11-05T16:57:34.211Z,86.82
2022-11-05T17:02:37.920Z,85.92
2022-11-05T17:07:43.202Z,83.81
2022-11-05T17:12:47.419Z,79.50
2022-11-05T17:17:51.753Z,79.95
2022-11-05T17:22:57.731Z,80.19
2022-11-05T17:28:00.554Z,79.38
2022-11-05T17:33:04.292Z,79.85
2022-11-05T17:38:09.978Z,78.68
2022-11-05T17:43:13.857Z,79.12
2022-11-05T17:48:18.544Z,78.33
2022-11-05T17:53:23.825Z,78.49
2022-11-05T17:58:27.366Z,77.33
2022-11-05T18:03:32.391Z,76.62
2022-11-05T18:08:37.545Z,77.35
2022-11-05T18:13:41.101Z,78.60
2022-11-05T18:18:44.659Z,77.97
2022-11-05T18:23:49.859Z,78.52
2022-11-05T18:28:53.411Z,77.50
2022-11-05T18:33:58.843Z,77.40
2022-11-05T18:39:05.276Z,76.85
2022-11-05T18:44:08.881Z,75.34
2022-11-05T18:49:12.427Z,74.59
2022-11-05T18:54:17.707Z,74.06
2022-11-05T18:59:36.670Z,74.14
2022-11-05T19:05:00.350Z,73.12
2022-11-05T19:10:08.689Z,73.36
2022-11-05T19:15:12.538Z,72.92
2022-11-05T19:20:16.212Z,72.92
2022-11-05T19:25:21.465Z,72.00
2022-11-05T19:30:25.102Z,72.11
2022-11-05T19:35:28.640Z,72.38
2022-11-05T19:40:33.853Z,72.53
2022-11-05T19:45:44.693Z,72.20
2022-11-05T19:50:48.919Z,71.68
2022-11-05T19:55:54.128Z,72.02
2022-11-05T20:00:57.678Z,70.84
2022-11-05T20:06:03.698Z,72.32
2022-11-05T20:11:09.184Z,72.48
2022-11-05T20:16:21.074Z,71.91
2022-11-05T20:21:24.619Z,70.82
2022-11-05T20:26:30.664Z,70.78
2022-11-05T20:31:34.201Z,71.05
2022-11-05T20:36:39.275Z,70.42
2022-11-05T20:41:44.485Z,69.48
2022-11-05T20:46:48.030Z,69.70
2022-11-05T20:51:51.610Z,69.35
2022-11-05T20:56:56.821Z,68.96
2022-11-05T21:02:00.474Z,68.83
2022-11-05T21:07:04.192Z,68.86
2022-11-05T21:12:10.720Z,69.02
2022-11-05T21:17:14.371Z,67.99
2022-11-05T21:22:17.993Z,66.71
2022-11-05T21:27:23.202Z,67.00
2022-11-05T21:32:26.736Z,66.81
2022-11-05T21:37:30.267Z,66.96
2022-11-05T21:42:35.472Z,66.23
2022-11-05T21:47:38.983Z,66.97
2022-11-05T21:52:42.513Z,67.42
2022-11-05T21:57:48.016Z,66.95
2022-11-05T22:02:50.927Z,65.78
2022-11-05T22:07:54.566Z,64.00
2022-11-05T22:12:59.716Z,64.34
2022-11-05T22:18:03.322Z,63.32
2022-11-05T22:23:11.109Z,62.96
2022-11-05T22:28:16.613Z,63.00
2022-11-05T22:33:20.207Z,63.16
2022-11-05T22:38:23.755Z,62.54
2022-11-05T22:43:28.927Z,62.93
2022-11-05T22:48:33.014Z,63.37
2022-11-05T22:53:37.419Z,63.39
2022-11-05T22:58:42.801Z,64.61
2022-11-05T23:03:46.276Z,65.99
2022-11-05T23:08:49.833Z,65.98
2022-11-05T23:13:55.251Z,66.21
2022-11-05T23:18:58.028Z,66.76
2022-11-05T23:24:01.568Z,67.37
2022-11-05T23:29:06.760Z,67.61
2022-11-05T23:34:10.304Z,68.16
2022-11-05T23:39:13.875Z,68.77
2022-11-05T23:44:21.680Z,68.93
2022-11-05T23:49:25.262Z,69.59
2022-11-05T23:54:28.849Z,70.18
2022-11-05T23:59:34.065Z,70.44
